createdAt,value
2023-03-22T00:00:17.658Z,99985.83
2023-03-22T00:05:40.871Z,99984.63
2023-03-22T00:10:43.776Z,99982.11
2023-03-22T00:15:49.331Z,99973.89
2023-03-22T00:20:55.835Z,99970.64
2023-03-22T00:25:58.837Z,99963.83
2023-03-22T00:31:02.965Z,99955.69
2023-03-22T00:36:09.684Z,99951.41
2023-03-22T00:41:16.289Z,99953.61
2023-03-22T00:46:21.086Z,99954.61
2023-03-22T00:51:24.640Z,99945.96
2023-03-22T00:56:29.169Z,99944.93
2023-03-22T01:01:32.817Z,99938.61
2023-03-22T01:06:36.206Z,99939.67
2023-03-22T01:11:39.210Z,99936.00
2023-03-22T01:16:42.195Z,99930.72
2023-03-22T01:21:45.327Z,99922.10
2023-03-22T01:26:48.889Z,99913.11
2023-03-22T01:31:52.103Z,99904.98
2023-03-22T01:36:55.056Z,99899.76
2023-03-22T01:41:58.066Z,99892.48
2023-03-22T01:47:00.970Z,99884.04
2023-03-22T01:52:12.274Z,99878.02
2023-03-22T01:57:15.176Z,99866.36
2023-03-22T02:02:22.449Z,99859.80
2023-03-22T02:07:28.562Z,99855.13
2023-03-22T02:12:42.626Z,99850.46
2023-03-22T02:18:19.127Z,99846.91
2023-03-22T02:23:21.933Z,99841.14
2023-03-22T02:28:42.745Z,99836.77
2023-03-22T02:33:48.935Z,99834.92
2023-03-22T02:39:09.858Z,99829.90
2023-03-22T02:44:43.379Z,99828.15
2023-03-22T02:50:08.918Z,99828.69
2023-03-22T02:55:30.246Z,99830.46
2023-03-22T03:00:36.614Z,99836.29
2023-03-22T03:05:43.736Z,99830.77
2023-03-22T03:10:48.378Z,99832.37
2023-03-22T03:15:55.460Z,99829.63
2023-03-22T03:21:30.432Z,99825.05
2023-03-22T03:26:36.719Z,99822.14
2023-03-22T03:31:50.895Z,99820.79
2023-03-22T03:37:01.520Z,99819.20
2023-03-22T03:42:07.144Z,99824.11
2023-03-22T03:47:12.334Z,99819.11
2023-03-22T03:52:15.307Z,99815.59
2023-03-22T03:57:18.209Z,99814.27
2023-03-22T04:02:21.193Z,99820.55
2023-03-22T04:07:24.434Z,99821.49
2023-03-22T04:12:27.338Z,99816.35
2023-03-22T04:17:32.215Z,99817.12
2023-03-22T04:22:38.580Z,99815.08
2023-03-22T04:27:43.571Z,99819.48
2023-03-22T04:32:47.562Z,99817.27
2023-03-22T04:37:51.786Z,99814.85
2023-03-22T04:42:57.936Z,99814.02
2023-03-22T04:48:01.209Z,99812.58
2023-03-22T04:53:04.182Z,99805.92
2023-03-22T04:58:07.086Z,99803.02
2023-03-22T05:03:10.131Z,99803.80
2023-03-22T05:08:14.562Z,99799.73
2023-03-22T05:13:17.447Z,99793.92
2023-03-22T05:18:24.927Z,99787.59
2023-03-22T05:23:28.262Z,99789.11
2023-03-22T05:28:32.185Z,99778.14
2023-03-22T05:33:35.195Z,99771.89
2023-03-22T05:38:38.730Z,99768.70
2023-03-22T05:43:41.928Z,99769.02
2023-03-22T05:48:44.838Z,99764.51
2023-03-22T05:53:49.087Z,99760.01
2023-03-22T05:58:52.280Z,99759.33
2023-03-22T06:03:55.188Z,99759.61
2023-03-22T06:09:14.157Z,99761.45
2023-03-22T06:14:19.429Z,99755.58
2023-03-22T06:19:22.357Z,99756.27
2023-03-22T06:24:25.869Z,99760.46
2023-03-22T06:29:28.865Z,99756.39
2023-03-22T06:34:32.217Z,99754.11
2023-03-22T06:39:35.075Z,99750.98
2023-03-22T06:44:37.991Z,99746.88
2023-03-22T06:49:41.501Z,99747.02
2023-03-22T06:54:44.766Z,99741.61
2023-03-22T06:59:47.809Z,99740.68
2023-03-22T07:04:50.797Z,99737.98
2023-03-22T07:09:53.821Z,99741.65
2023-03-22T07:14:56.942Z,99747.98
2023-03-22T07:20:00.070Z,99745.38
2023-03-22T07:25:03.284Z,99738.47
2023-03-22T07:30:09.048Z,99735.55
2023-03-22T07:35:12.651Z,99722.29
2023-03-22T07:40:15.717Z,99714.42
2023-03-22T07:45:20.769Z,99711.80
2023-03-22T07:50:23.719Z,99710.27
2023-03-22T07:55:26.624Z,99716.09
2023-03-22T08:00:29.903Z,99715.27
2023-03-22T08:05:33.238Z,99714.77
2023-03-22T08:10:36.256Z,99709.17
2023-03-22T08:15:39.717Z,99708.27
2023-03-22T08:20:45.501Z,99701.91
2023-03-22T08:25:48.556Z,99698.30
2023-03-22T08:30:52.288Z,99697.59
2023-03-22T08:36:06.748Z,99698.16
2023-03-22T08:41:09.755Z,99699.63
2023-03-22T08:46:12.802Z,99703.95
2023-03-22T08:51:20.788Z,99701.19
2023-03-22T08:56:25.121Z,99695.30
2023-03-22T09:01:28.208Z,99696.52
2023-03-22T09:06:31.548Z,99697.89
2023-03-22T09:11:35.676Z,99698.59
2023-03-22T09:16:38.639Z,99697.66
2023-03-22T09:21:41.586Z,99696.34
2023-03-22T09:26:44.905Z,99696.25
2023-03-22T09:31:50.879Z,99695.25
2023-03-22T09:36:54.326Z,99685.77
2023-03-22T09:42:02.222Z,99689.54
2023-03-22T09:47:08.293Z,99690.06
2023-03-22T09:52:16.798Z,99690.09
2023-03-22T09:57:22.343Z,99685.59
2023-03-22T10:02:48.883Z,99682.02
2023-03-22T10:08:03.946Z,99678.79
2023-03-22T10:13:23.541Z,99667.63
2023-03-22T10:18:33.313Z,99668.05
2023-03-22T10:23:55.772Z,99665.63
2023-03-22T10:29:12.517Z,99669.55
2023-03-22T10:34:24.627Z,99673.89
2023-03-22T10:39:39.404Z,99670.81
2023-03-22T10:44:50.493Z,99677.27
2023-03-22T10:49:56.012Z,99676.03
2023-03-22T10:55:03.767Z,99671.69
2023-03-22T11:00:11.602Z,99669.84
2023-03-22T11:05:24.753Z,99660.87
2023-03-22T11:10:33.374Z,99662.68
2023-03-22T11:15:49.196Z,99656.27
2023-03-22T11:20:57.520Z,99657.38
2023-03-22T11:26:09.535Z,99649.46
2023-03-22T11:31:15.511Z,99648.76
2023-03-22T11:36:19.396Z,99655.23
2023-03-22T11:41:25.782Z,99645.43
2023-03-22T11:46:30.302Z,99634.42
2023-03-22T11:51:37.369Z,99637.58
2023-03-22T11:56:43.748Z,99642.48
2023-03-22T12:02:13.622Z,99637.32
2023-03-22T12:07:22.167Z,99630.19
2023-03-22T12:12:30.012Z,99630.73
2023-03-22T12:17:49.762Z,99634.98
2023-03-22T12:22:55.322Z,99630.13
2023-03-22T12:28:02.222Z,99613.08
2023-03-22T12:33:29.310Z,99607.20
2023-03-22T12:38:41.515Z,99599.02
2023-03-22T12:43:49.945Z,99602.22
2023-03-22T12:49:27.980Z,99602.30
2023-03-22T12:54:31.242Z,99610.04
2023-03-22T12:59:34.290Z,99603.08
2023-03-22T13:04:37.201Z,99600.95
2023-03-22T13:09:42.808Z,99597.80
2023-03-22T13:15:28.399Z,99594.61
2023-03-22T13:20:34.991Z,99596.86
2023-03-22T13:25:40.513Z,99596.39
2023-03-22T13:30:56.646Z,99592.45
2023-03-22T13:36:07.280Z,99591.39
2023-03-22T13:41:33.286Z,99586.80
2023-03-22T13:46:36.339Z,99584.27
2023-03-22T13:51:41.090Z,99583.91
2023-03-22T13:56:57.160Z,99584.10
2023-03-22T14:02:22.472Z,99569.62
2023-03-22T14:07:40.732Z,99562.52
2023-03-22T14:12:58.097Z,99563.47
2023-03-22T14:18:16.288Z,99556.05
